Wagarville, Alabama
Current Conditions -  °F | °C
As of 4:56 AM on Saturday 25 Oct 2014 (Local Time) from KMOB Reporting Station
Clear Clear  
Wind Chill: 50°   Ceiling: Unl
Heat Index: 50°   Visibility: 10mi
Dew Point: 45°   Wind: 3mph
Humidity: 83%   Direction: 310°NW
Pressure: 30.08"   Gusts: NA
Location:  31.44°N, 88.03°W
Report Text: KMOB 250956Z AUTO 31003KT 10SM CLR 10/07 A3008 RMK AO2 SLP184 T01000072
Loading
Personal Weather Stations






























Interactive Weather Map
Tropical Storm Tracking
New forecast layout! Learn more

10-Day Weather Forecast

Advertisements
Track Severe Weather on mobile